Fieldton, Texas
Current Conditions -  °F | °C
As of 6:55 PM on Monday 26 Jan 2015 (Local Time) from KPVW Reporting Station
Clear Clear  
Wind Chill: 59°   Ceiling: Unl
Heat Index: 59°   Visibility: 10mi
Dew Point: 33°   Wind: 6mph
Humidity: 37%   Direction: 350°N
Pressure: 30.2"   Gusts: NA
Location:  34.04°N, 102.22°W
Report Text: KPVW 270055Z AUTO 35005KT 10SM CLR 15/00 A3020 RMK AO2 T01480003
Loading
Personal Weather Stations






























Interactive Weather Map New forecast layout! Learn more

10-Day Weather Forecast

Advertisements
Track Severe Weather on mobile